Relevés horaires Mottec (Suisse)


Relevés horaires à Mottec - Mercredi 04 Juill. 2018
Heure UTC1 Température [°C] Vent [km/h] Hum. [%] Pres.4 [hPa] Visi. [Km] Nébu. [octa] Préc.5 [mm] Cond.
2m. Res. Ros. Dir.2 Vit. Moy. Raf.3
23:00 11.2 10.5 10.5 S 7.4 -- -- 95 850 -- -- -- --
22:00 15.2 15.2 6.9 SSO 5.6 -- -- 58 850 -- -- -- --
21:00 14.0 13.5 8.1 S 9.3 -- 16.7 68 850(0.2/3h) -- -- -- --
20:00 14.3 13.6 8.0 S 11.1 -- -- 66 850 -- -- -- --
19:00 15.0 15 9.0 S 7.4 -- -- 67 850 -- -- -- --
18:00 16.2 16.2 11.1 S 3.7 -- 22.2 72 850(-0.8/3h) -- -- 0/12h
--
17:00 18.7 18.7 10.1 S 5.6 -- -- 57 850 -- -- -- --
16:00 19.9 19.9 8.6 ENE 1.9 -- -- 48 850 -- -- -- --
15:00 20.6 20.6 6.4 NNO 5.6 -- 22.2 40 850(-0.6/3h) -- -- -- --
14:00 21.2 21.2 6.4 N 7.4 -- -- 38 850 -- -- -- --
13:00 20.6 20.6 6.5 N 9.3 -- -- 40 850 -- -- -- --
12:00 20.9 20.9 6.7 N 11.1 -- 22.2 40 850(-0.6/3h) -- -- 0/6h
--
11:00 19.4 19.4 8.3 N 9.3 -- -- 49 850 -- -- -- --
10:00 18.8 18.8 9.6 N 11.1 -- -- 55 850 -- -- -- --
09:00 17.7 17.7 8.4 N 7.4 -- 13.0 54 850(-0.6/3h) -- -- -- --
08:00 15.4 15.4 11.5 NNE 5.6 -- -- 78 850 -- -- -- --
07:00 12.3 12.2 10.6 SSE 5.6 -- -- 89 850 -- -- -- --
06:00 10.9 10.6 10.6 S 5.6 -- 16.7 98 850(0.6/3h) -- -- 5/12h
4.6/24h
--
05:00 10.5 10.2 9.7 S 5.6 -- -- 95 850 -- -- -- --
04:00 10.6 9.8 10.2 SSE 7.4 -- -- 97 850 -- -- -- --
03:00 9.9 9.9 9.5 S 3.7 -- 16.7 97 850(-0.9/3h) -- -- -- --
02:00 10.4 9.2 9.6 S 9.3 -- -- 95 850 -- -- -- --
01:00 10.4 9.2 9.7 SSE 9.3 -- -- 95 850 -- -- -- --
00:00 9.9 9.5 9.6 S 5.6 -- 35.2 98 850(-0.1/3h) -- -- 4/6h
--

1 Coordinated Universal Time. Actuellement il est 07:00 locale et 06:00 UTC.

2 Le vent souffle depuis la direction indiquée vers la direction oposée.

3 Les rafales max. sont disponible 40 min après l'heure du relevé.

4 Pour les stations d'altitude (plus de 600m) le géopotentiel du niveau le plus proche de la pression obligatoire est indiqué.

5 Les stations disposant d'un diffuseur peuvent indiquer "trace". Cela signifie que des précipitations ont touchés le sol mais que la quantité est inférieure à 0.1 mm.

Récapitulatif de la journée
Température [°C] Vent [km/h] Ensoleillement4 [h] Precipitations totale5 [mm] Pression [Hpa]
Min1 Max.2 Moy.3 Max. Min Max.
9.0 21.4 0 35.2 4 h 48 min 2.3 850.0 850.0

1 Température minimale relevée entre 18:00 UTC la veille et 18:00 UTC le jour donné.

2 Température maximale relevée entre 06:00 UTC le jour donné et 06:00 UTC le lendemain.

3 Vent moyen de la journée basé sur les relevés horaires.

4 Ensoleillement en heures relevé entre 06:00 UTC la veille et 06:00 UTC le jour donné.

5 Précipitations totales tombées entre 06:00 UTC la jour donné et 06:00 UTC le lendemain.

Graphiques horaires